Time;durP1;ratioP1;P1;durP2;ratioP2;P2;SDS_P1;SDS_P2;PMS_P1;PMS_P2;Temp;Humidity;BMP_temperature;BMP_pressure;BME280_temperature;BME280_humidity;BME280_pressure;Samples;Min_cycle;Max_cycle;Signal;HPM_P1;HPM_P2
2021/04/10 00:02:17;;;;;;;10.85;3.97;;;5.80;90.70;;;;;;5048368;28;20063;-38
2021/04/10 00:04:43;;;;;;;13.93;3.80;;;5.80;90.70;;;;;;5046111;28;20052;-39
2021/04/10 00:07:09;;;;;;;13.20;3.92;;;5.70;90.60;;;;;;5067052;28;20117;-38
2021/04/10 00:09:37;;;;;;;16.23;5.03;;;5.70;90.60;;;;;;5047792;28;20053;-39
2021/04/10 00:12:03;;;;;;;11.82;3.85;;;5.70;90.50;;;;;;5059222;28;20076;-38
2021/04/10 00:14:32;;;;;;;12.57;3.45;;;5.70;90.40;;;;;;5047519;28;20086;-38
2021/04/10 00:16:59;;;;;;;11.20;2.80;;;5.80;90.20;;;;;;5056317;28;20870;-38
2021/04/10 00:19:25;;;;;;;14.57;3.40;;;5.80;90.10;;;;;;5058253;28;20045;-38
2021/04/10 00:21:50;;;;;;;12.60;3.03;;;5.70;90.10;;;;;;5069412;28;20037;-38
2021/04/10 00:24:16;;;;;;;8.35;3.05;;;5.70;90.10;;;;;;5057267;28;20045;-38
2021/04/10 00:26:42;;;;;;;13.82;3.08;;;5.70;90.00;;;;;;5061200;28;20040;-39
2021/04/10 00:29:10;;;;;;;9.55;3.17;;;5.80;90.00;;;;;;5060745;28;20113;-38
2021/04/10 00:31:36;;;;;;;15.93;3.10;;;5.80;90.10;;;;;;5038174;28;20501;-38
2021/04/10 00:34:02;;;;;;;12.50;3.00;;;5.80;90.00;;;;;;5047308;28;20056;-38
2021/04/10 00:36:30;;;;;;;12.93;3.85;;;5.70;90.10;;;;;;5058711;28;20443;-39
2021/04/10 00:38:56;;;;;;;8.85;2.78;;;5.80;90.10;;;;;;5050411;28;20053;-39
2021/04/10 00:41:22;;;;;;;13.98;2.85;;;5.70;90.00;;;;;;5053696;28;20048;-39
2021/04/10 00:43:48;;;;;;;6.65;2.30;;;5.70;90.10;;;;;;5047173;28;20045;-39
2021/04/10 00:46:14;;;;;;;11.90;3.72;;;5.70;90.00;;;;;;5054138;28;20087;-39
2021/04/10 00:48:40;;;;;;;10.20;3.15;;;5.70;90.10;;;;;;5048411;28;20068;-39
2021/04/10 00:51:06;;;;;;;10.32;2.67;;;5.70;90.00;;;;;;5051694;28;20040;-37
2021/04/10 00:53:33;;;;;;;11.05;2.70;;;5.70;90.10;;;;;;5061942;28;20081;-37
2021/04/10 00:56:04;;;;;;;11.38;3.40;;;5.70;90.10;;;;;;5058781;28;20419;-39
2021/04/10 00:58:32;;;;;;;11.77;2.75;;;5.70;90.10;;;;;;5046845;28;20076;-39
2021/04/10 01:00:58;;;;;;;11.70;2.88;;;5.70;90.10;;;;;;5047046;28;20162;-39
2021/04/10 01:03:26;;;;;;;11.60;3.22;;;5.70;90.10;;;;;;5046314;28;20053;-39
2021/04/10 01:05:52;;;;;;;12.02;3.08;;;5.70;90.10;;;;;;5056248;28;20044;-39
2021/04/10 01:08:20;;;;;;;15.88;4.03;;;5.70;90.10;;;;;;5052462;28;20045;-38
2021/04/10 01:10:46;;;;;;;14.27;3.60;;;5.60;90.30;;;;;;5056622;28;20136;-39
2021/04/10 01:13:36;;;;;;;12.52;2.83;;;5.60;90.30;;;;;;5045511;28;20053;-38
2021/04/10 01:16:20;;;;;;;10.68;3.10;;;5.60;90.10;;;;;;5051678;28;20065;-37
2021/04/10 01:18:56;;;;;;;11.60;3.05;;;5.60;90.30;;;;;;5048412;28;20552;-38
2021/04/10 01:21:31;;;;;;;15.82;3.40;;;5.60;90.30;;;;;;5059595;28;20053;-38
2021/04/10 01:24:15;;;;;;;12.55;3.78;;;5.50;90.60;;;;;;5050956;28;20090;-38
2021/04/10 01:27:02;;;;;;;10.05;3.28;;;5.60;90.30;;;;;;5035028;28;20064;-38
2021/04/10 01:29:32;;;;;;;12.43;3.10;;;5.60;90.30;;;;;;5045155;28;20124;-39
2021/04/10 01:32:02;;;;;;;10.30;3.08;;;5.50;90.30;;;;;;5045237;28;20449;-38
2021/04/10 01:34:40;;;;;;;9.38;2.70;;;5.50;90.50;;;;;;5044564;28;20463;-40
2021/04/10 01:37:19;;;;;;;10.90;3.08;;;5.50;90.40;;;;;;5045759;28;20148;-38
2021/04/10 01:39:50;;;;;;;8.98;3.33;;;5.50;90.40;;;;;;5048374;28;20497;-38
2021/04/10 01:42:21;;;;;;;12.98;3.28;;;5.50;90.50;;;;;;5055871;28;20096;-38
2021/04/10 01:44:48;;;;;;;12.10;3.10;;;5.50;90.40;;;;;;5051023;28;20049;-38
2021/04/10 01:47:17;;;;;;;10.98;3.60;;;5.50;90.50;;;;;;5060843;28;20127;-38
2021/04/10 01:49:43;;;;;;;13.23;3.20;;;5.50;90.60;;;;;;5056645;28;20382;-38
2021/04/10 01:52:13;;;;;;;8.30;2.85;;;5.50;90.60;;;;;;5052636;28;20493;-38
2021/04/10 01:54:39;;;;;;;10.13;2.90;;;5.50;90.60;;;;;;5052207;28;20484;-38
2021/04/10 01:57:07;;;;;;;13.32;3.55;;;5.50;90.90;;;;;;5048982;28;20041;-38
2021/04/10 01:59:35;;;;;;;8.07;2.78;;;5.50;90.70;;;;;;5069565;28;20246;-38
2021/04/10 02:02:03;;;;;;;11.82;3.03;;;5.50;90.70;;;;;;5052454;28;20673;-37
2021/04/10 02:04:33;;;;;;;10.48;3.20;;;5.50;90.70;;;;;;5050785;28;20059;-40
2021/04/10 02:07:01;;;;;;;9.13;3.35;;;5.40;90.70;;;;;;5050057;28;20045;-39
2021/04/10 02:09:28;;;;;;;12.85;3.30;;;5.40;90.70;;;;;;5059152;28;20122;-38
2021/04/10 02:11:55;;;;;;;16.05;3.67;;;5.40;90.80;;;;;;5050145;28;20107;-38
2021/04/10 02:14:21;;;;;;;9.55;2.85;;;5.40;90.80;;;;;;5050512;28;20060;-39
2021/04/10 02:16:47;;;;;;;12.70;3.65;;;5.40;90.90;;;;;;5048912;28;20068;-38
2021/04/10 02:19:15;;;;;;;10.82;3.17;;;5.40;90.80;;;;;;5049261;28;20053;-38
2021/04/10 02:21:44;;;;;;;10.55;3.13;;;5.40;90.80;;;;;;5062175;28;20053;-38
2021/04/10 02:24:11;;;;;;;8.77;3.13;;;5.40;90.90;;;;;;5048673;28;20041;-38
2021/04/10 02:26:37;;;;;;;16.23;3.95;;;5.40;91.00;;;;;;5048508;28;20114;-39
2021/04/10 02:29:04;;;;;;;12.77;3.33;;;5.40;91.00;;;;;;5050996;28;20041;-39
2021/04/10 02:31:41;;;;;;;13.25;4.05;;;5.30;91.00;;;;;;5049650;28;20370;-38
2021/04/10 02:34:14;;;;;;;11.15;4.03;;;5.40;91.40;;;;;;5055116;28;20053;-38
2021/04/10 02:36:41;;;;;;;9.55;4.10;;;5.30;91.10;;;;;;5049094;28;20094;-39
2021/04/10 02:39:09;;;;;;;10.80;3.55;;;5.30;91.30;;;;;;5060726;28;20063;-39
2021/04/10 02:41:35;;;;;;;16.27;3.45;;;5.30;91.20;;;;;;5065301;28;20052;-39
2021/04/10 02:44:06;;;;;;;13.40;3.50;;;5.30;91.20;;;;;;5048949;28;20421;-39
2021/04/10 02:46:36;;;;;;;13.48;3.97;;;5.30;91.30;;;;;;5062853;28;20154;-36
2021/04/10 02:49:08;;;;;;;11.98;3.53;;;5.30;91.30;;;;;;5047448;28;20527;-38
2021/04/10 02:51:45;;;;;;;10.73;3.60;;;5.30;91.40;;;;;;5061293;28;20085;-37
2021/04/10 02:54:16;;;;;;;12.60;4.25;;;5.30;91.50;;;;;;5066889;28;20049;-38
2021/04/10 02:56:46;;;;;;;10.30;3.47;;;5.20;91.50;;;;;;5050042;28;20053;-37
2021/04/10 02:59:13;;;;;;;13.55;4.28;;;5.20;91.50;;;;;;5052009;28;20045;-37
2021/04/10 03:01:41;;;;;;;13.35;4.22;;;5.20;91.60;;;;;;5059871;28;20076;-37
2021/04/10 03:04:09;;;;;;;17.02;3.67;;;5.20;91.50;;;;;;5053049;28;20123;-37
2021/04/10 03:06:36;;;;;;;13.63;3.67;;;5.20;91.60;;;;;;5058285;28;20075;-38
2021/04/10 03:09:05;;;;;;;13.10;4.20;;;5.20;91.60;;;;;;5055275;28;20044;-37
2021/04/10 03:11:34;;;;;;;12.63;4.28;;;5.20;91.70;;;;;;5051894;28;20053;-37
2021/04/10 03:14:00;;;;;;;11.95;4.18;;;5.10;91.60;;;;;;5052669;28;20045;-37
2021/04/10 03:16:29;;;;;;;16.50;4.68;;;5.10;91.60;;;;;;5053454;28;20057;-37
2021/04/10 03:18:56;;;;;;;12.07;4.43;;;5.10;91.80;;;;;;5060499;28;20045;-37
2021/04/10 03:21:22;;;;;;;14.05;4.13;;;5.10;91.70;;;;;;5056890;28;20040;-38
2021/04/10 03:23:48;;;;;;;15.95;4.68;;;5.10;91.60;;;;;;5050793;28;20409;-38
2021/04/10 03:26:16;;;;;;;11.93;4.00;;;5.10;91.60;;;;;;5048825;28;20053;-38
2021/04/10 03:28:44;;;;;;;13.80;4.55;;;5.10;91.50;;;;;;5052766;28;20057;-39
2021/04/10 03:31:10;;;;;;;17.17;4.18;;;5.10;91.50;;;;;;5050956;28;20049;-39
2021/04/10 03:33:37;;;;;;;11.60;4.18;;;5.10;91.50;;;;;;5049766;28;20049;-38
2021/04/10 03:36:04;;;;;;;11.30;3.90;;;5.10;91.50;;;;;;5048003;28;20057;-38
2021/04/10 03:38:33;;;;;;;11.13;3.50;;;5.10;91.60;;;;;;5049724;28;20057;-38
2021/04/10 03:41:03;;;;;;;14.95;3.80;;;5.10;91.40;;;;;;5047786;28;20044;-38
2021/04/10 03:43:29;;;;;;;14.10;4.35;;;5.10;91.40;;;;;;5047924;28;20040;-38
2021/04/10 03:45:54;;;;;;;10.68;3.83;;;5.10;91.50;;;;;;5050377;28;20067;-38
2021/04/10 03:48:20;;;;;;;11.48;3.25;;;5.10;91.50;;;;;;5061440;28;20502;-39
2021/04/10 03:50:48;;;;;;;14.80;4.28;;;5.10;91.40;;;;;;5061602;28;20164;-39
2021/04/10 03:53:14;;;;;;;10.57;4.20;;;5.10;91.40;;;;;;5063473;28;20052;-39
2021/04/10 03:55:42;;;;;;;13.55;4.30;;;5.10;91.40;;;;;;5059068;28;20409;-39
2021/04/10 03:58:08;;;;;;;10.07;4.00;;;5.10;91.50;;;;;;5052439;28;20049;-39
2021/04/10 04:00:34;;;;;;;16.13;5.47;;;5.10;91.40;;;;;;5047328;28;20671;-39
2021/04/10 04:03:00;;;;;;;19.23;4.93;;;5.10;91.40;;;;;;5057336;28;20477;-39
2021/04/10 04:05:27;;;;;;;11.35;3.83;;;5.00;91.50;;;;;;5053730;28;20496;-39
2021/04/10 04:07:53;;;;;;;15.02;4.28;;;5.00;91.40;;;;;;5055462;28;20036;-39
2021/04/10 04:10:21;;;;;;;14.52;3.80;;;5.00;91.30;;;;;;5055199;28;20800;-39
2021/04/10 04:12:47;;;;;;;11.70;4.05;;;5.10;91.40;;;;;;5059101;28;20053;-39
2021/04/10 04:15:13;;;;;;;12.23;3.78;;;5.00;91.30;;;;;;5053993;28;20047;-39
2021/04/10 04:17:38;;;;;;;14.75;4.18;;;5.00;91.30;;;;;;5056064;28;20057;-40
2021/04/10 04:20:06;;;;;;;14.15;4.28;;;5.00;91.30;;;;;;5047086;28;20065;-37
2021/04/10 04:22:31;;;;;;;10.52;3.53;;;5.00;91.20;;;;;;5060015;28;20078;-38
2021/04/10 04:24:57;;;;;;;15.45;4.47;;;5.00;91.30;;;;;;5054354;28;20096;-37
2021/04/10 04:27:23;;;;;;;15.57;4.15;;;5.00;91.20;;;;;;5046320;28;20087;-37
2021/04/10 04:29:49;;;;;;;13.95;4.15;;;5.00;91.20;;;;;;5057315;28;20053;-37
2021/04/10 04:32:15;;;;;;;10.13;4.15;;;5.00;91.30;;;;;;5066320;28;20590;-37
2021/04/10 04:34:41;;;;;;;13.00;3.75;;;5.00;91.30;;;;;;5070267;28;20064;-37
2021/04/10 04:37:07;;;;;;;14.55;5.38;;;4.90;91.30;;;;;;5049364;28;20064;-37
2021/04/10 04:39:33;;;;;;;12.30;4.53;;;4.90;91.30;;;;;;5045521;28;20757;-37
2021/04/10 04:42:02;;;;;;;14.32;4.88;;;4.90;91.40;;;;;;5046969;28;20053;-37
2021/04/10 04:44:28;;;;;;;17.60;4.50;;;4.90;91.30;;;;;;5046606;28;20051;-37
2021/04/10 04:46:55;;;;;;;13.50;4.80;;;4.90;91.30;;;;;;5047014;28;20057;-37
2021/04/10 04:49:21;;;;;;;12.95;4.18;;;4.90;91.40;;;;;;5045157;28;20064;-37
2021/04/10 04:51:47;;;;;;;17.38;4.38;;;4.90;91.40;;;;;;5058510;28;20500;-38
2021/04/10 04:54:12;;;;;;;13.98;3.90;;;4.90;91.40;;;;;;5065933;28;20047;-37
2021/04/10 04:56:40;;;;;;;12.80;4.10;;;4.90;91.50;;;;;;5051531;28;20132;-38
2021/04/10 04:59:08;;;;;;;14.45;5.10;;;4.90;91.50;;;;;;5046523;28;20045;-37
2021/04/10 05:01:37;;;;;;;12.13;4.70;;;4.90;91.60;;;;;;5046241;28;20079;-37
2021/04/10 05:04:03;;;;;;;19.10;5.07;;;5.00;91.50;;;;;;5045071;28;20053;-37
2021/04/10 05:06:33;;;;;;;14.10;4.75;;;5.00;91.50;;;;;;5050793;28;20068;-37
2021/04/10 05:09:02;;;;;;;13.00;4.43;;;5.10;91.50;;;;;;5050166;28;20056;-38
2021/04/10 05:11:31;;;;;;;18.38;5.45;;;5.10;91.40;;;;;;5049490;28;20048;-38
2021/04/10 05:13:59;;;;;;;12.15;4.35;;;5.10;91.40;;;;;;5060870;28;20067;-37
2021/04/10 05:16:28;;;;;;;13.77;4.35;;;5.20;91.20;;;;;;5060783;28;20045;-38
2021/04/10 05:18:57;;;;;;;13.70;5.00;;;5.10;91.20;;;;;;5061604;28;20076;-38
2021/04/10 05:21:28;;;;;;;12.65;4.70;;;5.10;91.10;;;;;;5055978;28;20060;-38
2021/04/10 05:23:55;;;;;;;13.38;5.05;;;5.10;91.10;;;;;;5058167;28;20064;-37
2021/04/10 05:26:23;;;;;;;13.88;4.45;;;5.10;91.00;;;;;;5052378;28;20413;-37
2021/04/10 05:28:54;;;;;;;18.73;5.70;;;5.10;91.00;;;;;;5055559;28;20136;-39
2021/04/10 05:31:23;;;;;;;13.27;4.57;;;5.20;90.90;;;;;;5052211;28;20041;-38
2021/04/10 05:33:54;;;;;;;18.83;6.28;;;5.20;90.90;;;;;;5053350;28;20315;-38
2021/04/10 05:36:25;;;;;;;17.77;5.90;;;5.20;90.70;;;;;;5049495;28;20056;-38
2021/04/10 05:39:00;;;;;;;14.82;5.20;;;5.20;90.70;;;;;;5052479;28;20463;-38
2021/04/10 05:41:29;;;;;;;10.57;5.00;;;5.20;90.50;;;;;;5054294;28;20135;-38
2021/04/10 05:43:56;;;;;;;19.27;6.10;;;5.20;90.70;;;;;;5060563;28;20052;-38
2021/04/10 05:46:24;;;;;;;15.98;5.65;;;5.20;90.70;;;;;;5055595;28;20113;-39
2021/04/10 05:48:55;;;;;;;11.80;5.25;;;5.20;90.70;;;;;;5058690;28;20068;-39
2021/04/10 05:51:26;;;;;;;19.98;6.05;;;5.20;90.80;;;;;;5050459;28;20048;-38
2021/04/10 05:53:52;;;;;;;14.63;5.70;;;5.20;90.80;;;;;;5051651;28;20059;-38
2021/04/10 05:56:21;;;;;;;14.77;5.88;;;5.30;90.80;;;;;;5049184;28;20425;-38
2021/04/10 05:58:52;;;;;;;19.77;5.95;;;5.30;90.70;;;;;;5049250;28;20064;-38
2021/04/10 06:01:20;;;;;;;53.40;30.17;;;5.30;90.80;;;;;;5049213;28;20088;-36
2021/04/10 06:03:54;;;;;;;56.92;36.05;;;5.40;90.80;;;;;;5051402;28;20045;-37
2021/04/10 06:06:26;;;;;;;20.23;9.25;;;5.40;90.80;;;;;;5049658;28;20417;-37
2021/04/10 06:08:55;;;;;;;28.30;14.55;;;5.40;90.70;;;;;;5052155;28;20067;-36
2021/04/10 06:11:30;;;;;;;20.00;6.93;;;5.40;90.60;;;;;;5049694;28;20041;-36
2021/04/10 06:14:02;;;;;;;18.33;6.20;;;5.40;90.60;;;;;;5053569;28;20142;-37
2021/04/10 06:16:30;;;;;;;18.13;8.70;;;5.50;90.70;;;;;;5049747;28;20063;-37
2021/04/10 06:18:59;;;;;;;19.02;9.48;;;5.50;90.70;;;;;;5055099;28;20048;-37
2021/04/10 06:21:25;;;;;;;39.67;23.45;;;5.50;90.60;;;;;;5050916;28;20045;-37
2021/04/10 06:23:55;;;;;;;34.63;20.48;;;5.60;90.60;;;;;;5053421;28;20056;-37
2021/04/10 06:26:24;;;;;;;24.58;9.77;;;5.60;90.40;;;;;;5054403;28;20075;-36
2021/04/10 06:28:55;;;;;;;20.77;9.05;;;5.70;90.40;;;;;;5055252;28;20049;-36
2021/04/10 06:31:29;;;;;;;26.50;14.20;;;5.70;90.30;;;;;;5049509;28;20051;-37
2021/04/10 06:33:57;;;;;;;18.17;7.03;;;5.80;90.20;;;;;;5047274;28;20057;-37
2021/04/10 06:36:30;;;;;;;16.95;7.30;;;5.80;90.00;;;;;;5048817;28;20091;-36
2021/04/10 06:39:02;;;;;;;18.10;6.40;;;5.90;89.90;;;;;;5059299;28;20147;-36
2021/04/10 06:41:40;;;;;;;15.63;7.65;;;6.00;89.70;;;;;;5051498;28;20040;-36
2021/04/10 06:44:15;;;;;;;34.40;20.63;;;6.10;89.80;;;;;;5047187;28;20152;-36
2021/04/10 06:46:42;;;;;;;25.15;15.27;;;6.40;89.60;;;;;;5039830;28;20507;-36
2021/04/10 06:49:12;;;;;;;23.63;12.77;;;6.40;88.20;;;;;;5050348;28;20336;-36
2021/04/10 06:51:39;;;;;;;20.17;10.45;;;6.40;87.90;;;;;;5043348;28;20047;-37
2021/04/10 06:54:13;;;;;;;21.25;10.20;;;6.40;87.90;;;;;;5047910;28;20067;-36
2021/04/10 06:56:56;;;;;;;18.42;8.52;;;6.50;87.40;;;;;;5046066;28;20076;-35
2021/04/10 06:59:51;;;;;;;17.95;9.65;;;6.50;87.10;;;;;;5046402;28;20057;-36
2021/04/10 07:02:20;;;;;;;;;;;6.60;86.70;;;;;;5043936;28;20057;-36
2021/04/10 07:04:51;;;;;;;11.93;4.82;;;6.60;85.50;;;;;;5047404;28;19925;-36
2021/04/10 07:07:21;;;;;;;14.82;5.97;;;6.80;86.10;;;;;;5046580;28;20144;-36
2021/04/10 07:09:53;;;;;;;17.23;5.20;;;6.90;85.70;;;;;;5042468;28;20049;-36
2021/04/10 07:12:22;;;;;;;14.32;3.90;;;7.00;85.30;;;;;;5044153;28;20059;-37
2021/04/10 07:14:52;;;;;;;14.85;6.03;;;7.00;84.50;;;;;;5045056;28;20490;-37
2021/04/10 07:17:21;;;;;;;14.38;4.03;;;7.00;84.60;;;;;;5045809;28;20056;-37
2021/04/10 07:19:58;;;;;;;13.25;4.60;;;7.10;84.00;;;;;;5045398;28;20087;-38
2021/04/10 07:22:29;;;;;;;15.27;8.15;;;7.10;83.10;;;;;;5039689;28;20045;-38
2021/04/10 07:24:59;;;;;;;11.98;4.13;;;7.30;84.30;;;;;;5052395;28;20057;-38
2021/04/10 07:27:30;;;;;;;16.95;5.05;;;7.30;80.60;;;;;;5045940;28;20045;-39
2021/04/10 07:30:02;;;;;;;11.07;3.67;;;7.30;82.40;;;;;;5079735;28;20057;-40
2021/04/10 07:32:36;;;;;;;116.32;87.38;;;7.40;80.90;;;;;;5046193;28;20432;-40
2021/04/10 07:35:06;;;;;;;43.75;27.45;;;7.50;81.30;;;;;;5056106;28;20041;-39
2021/04/10 07:37:57;;;;;;;61.25;37.95;;;7.60;81.40;;;;;;5054413;28;20044;-39
2021/04/10 07:40:31;;;;;;;;;;;7.60;79.60;;;;;;5057646;28;20523;-40
2021/04/10 07:43:03;;;;;;;18.52;6.72;;;7.70;78.90;;;;;;5050511;28;19964;-40
2021/04/10 07:45:33;;;;;;;;;;;7.80;81.00;;;;;;5056345;28;20048;-38
2021/04/10 07:48:06;;;;;;;21.10;10.50;;;7.90;79.20;;;;;;5049718;28;19985;-39
2021/04/10 07:50:34;;;;;;;14.73;8.98;;;7.80;78.50;;;;;;5051974;28;20052;-39
2021/04/10 07:53:23;;;;;;;14.60;6.32;;;7.90;78.90;;;;;;5048170;28;20048;-39
2021/04/10 07:55:58;;;;;;;16.00;6.47;;;8.00;76.70;;;;;;5054960;28;20041;-40
2021/04/10 07:58:30;;;;;;;13.65;5.00;;;8.10;76.50;;;;;;5047191;28;20520;-40
2021/04/10 08:01:10;;;;;;;13.40;3.67;;;8.00;75.10;;;;;;5046581;28;20064;-40
2021/04/10 08:03:57;;;;;;;15.95;3.30;;;8.10;74.90;;;;;;5050770;28;20472;-39
2021/04/10 08:06:25;;;;;;;11.50;2.78;;;8.20;73.40;;;;;;5057520;28;20576;-40
2021/04/10 08:08:55;;;;;;;13.40;3.17;;;8.60;74.10;;;;;;5049787;28;20056;-39
2021/04/10 08:11:35;;;;;;;13.43;2.40;;;9.10;72.20;;;;;;5043661;28;20525;-40
2021/04/10 08:14:12;;;;;;;26.58;16.50;;;9.60;67.00;;;;;;5051743;28;20052;-39
2021/04/10 08:16:44;;;;;;;33.33;20.45;;;9.70;64.50;;;;;;5052805;28;20097;-39
2021/04/10 08:19:10;;;;;;;27.80;16.40;;;10.00;65.30;;;;;;5052149;28;20144;-40
2021/04/10 08:21:42;;;;;;;23.98;12.38;;;10.00;65.00;;;;;;5050277;28;20521;-40
2021/04/10 08:24:27;;;;;;;16.70;8.50;;;9.90;64.70;;;;;;5055522;28;20101;-40
2021/04/10 08:26:58;;;;;;;8.55;2.78;;;9.70;64.00;;;;;;5050428;28;20055;-40
2021/04/10 08:29:27;;;;;;;13.55;3.90;;;9.50;65.10;;;;;;5043882;28;20078;-42
2021/04/10 08:31:57;;;;;;;11.15;4.32;;;9.50;66.40;;;;;;5046408;28;20063;-40
2021/04/10 08:34:26;;;;;;;14.82;6.22;;;9.50;66.40;;;;;;5051175;28;20043;-43
2021/04/10 08:37:04;;;;;;;168.30;133.13;;;9.50;66.70;;;;;;5044289;28;20106;-39
2021/04/10 08:39:35;;;;;;;42.13;28.17;;;10.00;67.30;;;;;;5052933;28;20059;-39
2021/04/10 08:42:05;;;;;;;18.05;8.80;;;9.90;66.30;;;;;;5045039;28;20122;-40
2021/04/10 08:44:35;;;;;;;23.30;12.50;;;9.80;64.30;;;;;;5045270;28;20048;-39
2021/04/10 08:47:03;;;;;;;12.55;3.88;;;9.60;64.40;;;;;;5050218;28;20053;-39
2021/04/10 08:49:34;;;;;;;15.05;7.63;;;9.40;63.70;;;;;;5046664;28;20041;-39
2021/04/10 08:52:10;;;;;;;20.77;11.20;;;9.40;64.50;;;;;;5045337;28;20522;-39
2021/04/10 08:54:41;;;;;;;23.00;9.02;;;9.50;64.30;;;;;;5047128;28;20049;-39
2021/04/10 08:57:12;;;;;;;11.57;2.70;;;9.80;65.00;;;;;;5048551;28;20059;-39
2021/04/10 08:59:43;;;;;;;10.75;2.65;;;9.90;63.80;;;;;;5047859;28;20060;-38
2021/04/10 09:02:14;;;;;;;10.65;3.53;;;9.80;62.70;;;;;;5049482;28;20059;-39
2021/04/10 09:04:55;;;;;;;9.80;3.70;;;10.00;62.10;;;;;;5056055;28;20067;-38
2021/04/10 09:07:44;;;;;;;9.75;2.95;;;10.10;61.90;;;;;;5053405;28;20037;-39
2021/04/10 09:10:33;;;;;;;10.68;2.58;;;10.30;62.40;;;;;;5052040;28;20048;-40
2021/04/10 09:13:31;;;;;;;10.77;4.40;;;11.00;58.90;;;;;;5050433;28;20057;-40
2021/04/10 09:16:25;;;;;;;10.65;3.53;;;11.00;60.10;;;;;;5029943;28;20156;-39
2021/04/10 09:18:55;;;;;;;12.68;5.53;;;11.20;58.00;;;;;;5039922;28;20081;-40
2021/04/10 09:21:51;;;;;;;11.90;2.58;;;11.10;58.80;;;;;;5027005;28;20049;-40
2021/04/10 09:24:17;;;;;;;8.10;3.75;;;11.20;57.70;;;;;;5029347;28;20056;-41
2021/04/10 09:27:09;;;;;;;12.02;5.78;;;11.20;58.50;;;;;;5035480;28;20256;-40
2021/04/10 09:29:37;;;;;;;7.30;2.90;;;10.90;56.70;;;;;;5029994;28;20431;-40
2021/04/10 09:32:06;;;;;;;12.60;3.40;;;10.80;57.60;;;;;;5034223;28;20073;-40
2021/04/10 09:34:54;;;;;;;11.38;6.03;;;10.90;58.80;;;;;;5048753;28;20049;-40
2021/04/10 09:37:20;;;;;;;9.13;2.83;;;10.70;56.70;;;;;;5033442;28;20060;-40
2021/04/10 09:40:17;;;;;;;8.82;2.90;;;10.60;59.00;;;;;;5030117;28;20440;-40
2021/04/10 09:42:50;;;;;;;9.13;3.15;;;10.60;58.00;;;;;;5033277;28;20124;-39
2021/04/10 09:45:18;;;;;;;9.35;2.85;;;10.50;58.30;;;;;;5025791;28;20069;-39
2021/04/10 09:47:58;;;;;;;13.02;3.33;;;10.30;58.90;;;;;;5032225;28;20052;-40
2021/04/10 09:50:32;;;;;;;10.82;2.70;;;10.30;60.00;;;;;;5031168;28;20079;-40
2021/04/10 09:53:21;;;;;;;28.67;17.35;;;10.30;58.80;;;;;;5041280;28;20091;-39
2021/04/10 09:56:12;;;;;;;15.20;10.27;;;10.20;59.80;;;;;;5043922;28;20053;-40
2021/04/10 09:58:49;;;;;;;15.48;8.25;;;10.40;59.10;;;;;;5042266;28;20075;-39
2021/04/10 10:01:21;;;;;;;17.00;9.77;;;10.40;58.10;;;;;;5047437;28;20045;-41
2021/04/10 10:03:49;;;;;;;18.60;9.10;;;10.70;58.40;;;;;;5053069;28;20052;-40
2021/04/10 10:06:27;;;;;;;10.20;3.38;;;10.90;57.70;;;;;;5047557;28;20111;-40
2021/04/10 10:08:53;;;;;;;6.35;2.58;;;10.70;53.80;;;;;;5050191;28;20103;-38
2021/04/10 10:11:20;;;;;;;9.57;2.45;;;10.60;55.90;;;;;;5049780;28;20094;-39
2021/04/10 10:13:51;;;;;;;5.60;2.03;;;10.60;57.50;;;;;;5050480;28;20040;-38
2021/04/10 10:16:28;;;;;;;9.18;2.47;;;10.60;57.30;;;;;;5055458;28;20080;-38
2021/04/10 10:19:02;;;;;;;7.72;2.95;;;10.80;57.10;;;;;;5043751;28;20495;-38
2021/04/10 10:21:36;;;;;;;10.82;3.15;;;10.80;57.70;;;;;;5046816;28;20171;-38
2021/04/10 10:24:05;;;;;;;8.95;2.33;;;11.00;57.50;;;;;;5046202;28;20128;-38
2021/04/10 10:26:45;;;;;;;11.15;2.97;;;10.90;57.00;;;;;;5048679;28;20047;-38
2021/04/10 10:29:15;;;;;;;8.18;2.38;;;10.80;56.90;;;;;;5061169;28;20059;-40
2021/04/10 10:31:46;;;;;;;10.93;3.00;;;10.70;56.70;;;;;;5047868;28;20053;-40
2021/04/10 10:34:17;;;;;;;7.85;1.92;;;10.60;56.90;;;;;;5050634;28;20052;-41
2021/04/10 10:36:45;;;;;;;144.15;106.57;;;10.50;55.70;;;;;;5055721;28;20136;-39
2021/04/10 10:39:27;;;;;;;16.42;9.75;;;10.60;56.10;;;;;;5064076;28;20060;-39
2021/04/10 10:41:57;;;;;;;10.50;5.65;;;10.50;56.20;;;;;;5054804;28;20063;-39
2021/04/10 10:44:27;;;;;;;37.25;27.58;;;10.60;56.90;;;;;;5057464;28;20461;-39
2021/04/10 10:47:07;;;;;;;12.30;5.85;;;10.80;57.40;;;;;;5049796;28;20053;-45
2021/04/10 10:49:33;;;;;;;55.33;40.30;;;10.70;54.90;;;;;;5057442;28;20043;-39
2021/04/10 10:52:02;;;;;;;19.63;12.75;;;10.80;56.20;;;;;;5054165;28;20508;-37
2021/04/10 10:54:36;;;;;;;18.75;9.18;;;11.00;56.70;;;;;;5051729;28;20149;-37
2021/04/10 10:57:07;;;;;;;16.75;7.40;;;11.20;56.50;;;;;;5046277;28;20099;-37
2021/04/10 10:59:36;;;;;;;12.07;3.80;;;11.30;55.40;;;;;;5063551;28;20045;-37
2021/04/10 11:02:03;;;;;;;9.68;3.50;;;11.40;55.40;;;;;;5046093;28;20086;-36
2021/04/10 11:04:35;;;;;;;11.07;2.88;;;11.70;56.30;;;;;;5046574;28;20044;-36
2021/04/10 11:07:07;;;;;;;13.05;3.28;;;11.50;54.70;;;;;;5046983;28;20056;-37
2021/04/10 11:09:42;;;;;;;;;;;11.60;55.40;;;;;;5044839;28;20052;-38
2021/04/10 11:12:13;;;;;;;8.95;2.83;;;11.40;54.40;;;;;;5048915;28;19925;-38
2021/04/10 11:14:44;;;;;;;11.15;2.67;;;11.20;55.30;;;;;;5043955;28;20052;-38
2021/04/10 11:17:31;;;;;;;10.55;2.70;;;11.00;55.40;;;;;;5044353;28;20523;-38
2021/04/10 11:20:02;;;;;;;9.52;2.60;;;10.80;55.10;;;;;;5051803;28;20124;-39
2021/04/10 11:22:28;;;;;;;10.10;2.90;;;10.70;55.20;;;;;;5038702;28;20486;-43
2021/04/10 11:25:06;;;;;;;10.82;3.80;;;10.50;56.50;;;;;;5044982;28;20053;-39
2021/04/10 11:27:38;;;;;;;6.38;1.80;;;10.50;57.30;;;;;;5044561;28;20045;-39
2021/04/10 11:30:14;;;;;;;4.65;1.65;;;10.40;55.40;;;;;;5039910;28;20688;-39
2021/04/10 11:32:43;;;;;;;8.20;2.30;;;10.10;55.10;;;;;;5048324;28;20051;-39
2021/04/10 11:35:23;;;;;;;8.32;3.42;;;10.20;56.60;;;;;;5045150;28;20057;-39
2021/04/10 11:37:51;;;;;;;9.15;2.03;;;10.30;58.50;;;;;;5045787;28;20048;-39
2021/04/10 11:40:20;;;;;;;12.70;5.10;;;10.20;57.20;;;;;;5045171;28;20061;-39
2021/04/10 11:42:53;;;;;;;17.90;7.97;;;10.10;58.00;;;;;;5046513;28;20052;-39
2021/04/10 11:45:30;;;;;;;27.40;19.83;;;10.20;57.90;;;;;;5049481;28;20047;-39
2021/04/10 11:48:12;;;;;;;6.00;2.45;;;10.20;57.20;;;;;;5048063;28;20053;-39
2021/04/10 11:50:42;;;;;;;10.10;3.20;;;9.80;56.10;;;;;;5047960;28;20048;-39
2021/04/10 11:53:26;;;;;;;6.75;2.25;;;9.70;57.90;;;;;;5048039;28;20786;-39
2021/04/10 11:55:56;;;;;;;10.07;3.45;;;9.70;57.60;;;;;;5046144;28;20045;-39
2021/04/10 11:58:35;;;;;;;8.98;3.42;;;9.70;58.80;;;;;;5047477;28;20591;-39
2021/04/10 12:01:16;;;;;;;12.82;3.80;;;9.80;58.40;;;;;;5046387;28;20057;-39
2021/04/10 12:04:00;;;;;;;7.03;1.90;;;9.90;58.80;;;;;;5047405;28;20373;-39
2021/04/10 12:06:27;;;;;;;8.80;2.88;;;9.80;56.20;;;;;;5046909;28;20095;-39
2021/04/10 12:08:53;;;;;;;15.32;6.50;;;9.90;57.30;;;;;;5048054;28;20060;-39
2021/04/10 12:11:24;;;;;;;12.57;5.85;;;9.80;57.70;;;;;;5048000;28;20049;-39
2021/04/10 12:13:50;;;;;;;10.73;3.00;;;10.10;57.80;;;;;;5045799;28;20152;-39
2021/04/10 12:16:19;;;;;;;15.30;7.20;;;10.40;58.20;;;;;;5042748;28;20069;-39
2021/04/10 12:18:49;;;;;;;14.02;4.25;;;10.40;57.70;;;;;;5046575;28;20394;-39
2021/04/10 12:21:19;;;;;;;9.57;4.03;;;10.30;58.20;;;;;;5046426;28;20072;-39
2021/04/10 12:23:45;;;;;;;13.48;5.15;;;10.20;58.80;;;;;;5047534;28;20112;-39
2021/04/10 12:26:18;;;;;;;13.52;7.80;;;10.20;57.90;;;;;;5046516;28;20520;-39
2021/04/10 12:28:46;;;;;;;10.55;2.78;;;10.20;58.10;;;;;;5047039;28;20051;-39
2021/04/10 12:31:12;;;;;;;12.13;6.82;;;10.20;57.40;;;;;;5046871;28;20429;-39
2021/04/10 12:33:41;;;;;;;10.35;4.55;;;10.50;58.10;;;;;;5046734;28;20053;-44
2021/04/10 12:36:08;;;;;;;17.02;9.38;;;10.50;57.30;;;;;;5046149;28;20057;-39
2021/04/10 12:38:35;;;;;;;10.48;6.18;;;10.40;56.50;;;;;;5046054;28;20131;-39
2021/04/10 12:41:08;;;;;;;17.85;8.18;;;10.40;57.10;;;;;;5047013;28;20045;-39
2021/04/10 12:43:35;;;;;;;22.70;13.43;;;10.40;57.00;;;;;;5026514;28;20423;-39
2021/04/10 12:46:02;;;;;;;63.50;48.78;;;10.90;59.00;;;;;;5057262;28;20057;-39
2021/04/10 12:48:29;;;;;;;13.30;6.03;;;11.00;57.10;;;;;;5041301;28;20826;-39
2021/04/10 12:50:55;;;;;;;12.65;6.80;;;11.10;56.60;;;;;;5046970;28;20140;-39
2021/04/10 12:53:27;;;;;;;10.15;5.40;;;11.20;55.70;;;;;;5046624;28;20099;-39
2021/04/10 12:55:58;;;;;;;8.18;2.67;;;11.10;56.30;;;;;;5048709;28;20044;-39
2021/04/10 12:58:29;;;;;;;10.60;5.60;;;11.10;56.80;;;;;;5045959;28;20053;-39
2021/04/10 13:01:04;;;;;;;13.05;5.50;;;10.90;56.60;;;;;;5076344;28;20218;-39
2021/04/10 13:03:31;;;;;;;12.27;5.45;;;11.00;56.60;;;;;;5045103;28;20056;-38
2021/04/10 13:06:03;;;;;;;7.60;2.97;;;10.90;56.70;;;;;;5044936;28;20057;-39